Time;durP1;ratioP1;P1;durP2;ratioP2;P2;SDS_P1;SDS_P2;PMS_P1;PMS_P2;Temp;Humidity;BMP_temperature;BMP_pressure;BME280_temperature;BME280_humidity;BME280_pressure;Samples;Min_cycle;Max_cycle;Signal;HPM_P1;HPM_P2
2021/09/17 00:00:39;;;;;;;0.67;0.30;;;21.70;91.00;;;;;;5040639;28;20284;-73
2021/09/17 00:03:07;;;;;;;5.50;0.83;;;21.70;91.00;;;;;;5033869;28;20210;-73
2021/09/17 00:05:34;;;;;;;0.37;0.30;;;21.70;91.00;;;;;;5044628;28;20619;-73
2021/09/17 00:08:01;;;;;;;0.77;0.77;;;21.70;91.00;;;;;;5047723;28;20725;-73
2021/09/17 00:10:28;;;;;;;27.33;1.00;;;21.70;90.90;;;;;;5031605;28;20293;-73
2021/09/17 00:12:55;;;;;;;0.10;0.10;;;21.80;91.00;;;;;;5043385;28;20275;-73
2021/09/17 00:15:22;;;;;;;1.23;1.13;;;21.80;90.90;;;;;;5042490;28;20221;-73
2021/09/17 00:17:49;;;;;;;0.20;0.20;;;21.80;90.90;;;;;;5040927;28;20239;-73
2021/09/17 00:20:17;;;;;;;0.80;0.60;;;21.90;90.90;;;;;;5041713;28;20635;-73
2021/09/17 00:22:45;;;;;;;0.70;0.70;;;21.80;90.90;;;;;;5030545;28;20218;-73
2021/09/17 00:25:12;;;;;;;1.07;0.97;;;21.80;90.90;;;;;;5040255;28;20221;-73
2021/09/17 00:27:40;;;;;;;0.50;0.40;;;21.90;91.00;;;;;;5041885;28;20215;-73
2021/09/17 00:30:07;;;;;;;0.50;0.50;;;21.90;91.00;;;;;;5048174;28;20280;-73
2021/09/17 00:32:34;;;;;;;0.10;0.10;;;21.90;91.00;;;;;;5042912;28;20221;-73
2021/09/17 00:35:03;;;;;;;0.37;0.37;;;21.90;90.90;;;;;;5022677;28;20327;-73
2021/09/17 00:37:30;;;;;;;0.83;0.83;;;21.90;90.90;;;;;;5043231;28;20717;-73
2021/09/17 00:39:57;;;;;;;1.03;0.80;;;21.90;91.00;;;;;;5032452;28;20561;-73
2021/09/17 00:42:25;;;;;;;2.33;1.30;;;21.80;91.00;;;;;;5033409;28;20279;-73
2021/09/17 00:44:52;;;;;;;8.57;1.90;;;21.80;91.00;;;;;;5043729;28;20552;-73
2021/09/17 00:47:19;;;;;;;0.33;0.33;;;21.80;91.10;;;;;;5027230;28;20219;-73
2021/09/17 00:49:46;;;;;;;1.20;1.20;;;21.80;91.20;;;;;;5032395;28;20222;-73
2021/09/17 00:52:13;;;;;;;3.13;2.90;;;21.80;91.30;;;;;;5027761;28;20210;-73
2021/09/17 00:54:41;;;;;;;1.23;0.87;;;21.80;91.20;;;;;;5042675;28;20214;-74
2021/09/17 00:57:08;;;;;;;1.17;0.90;;;21.80;91.20;;;;;;5030402;28;20215;-74
2021/09/17 00:59:35;;;;;;;0.60;0.60;;;21.80;91.20;;;;;;5025015;28;20702;-73
2021/09/17 01:02:03;;;;;;;0.00;0.00;;;21.90;91.20;;;;;;5042913;28;20349;-73
2021/09/17 01:04:31;;;;;;;0.73;0.73;;;21.90;91.20;;;;;;5042238;28;20287;-73
2021/09/17 01:06:58;;;;;;;0.57;0.57;;;21.90;91.20;;;;;;5014471;28;20222;-73
2021/09/17 01:09:26;;;;;;;1.27;1.17;;;21.90;91.20;;;;;;5037760;28;20722;-73
2021/09/17 01:11:53;;;;;;;0.60;0.60;;;21.80;91.20;;;;;;5041683;28;20225;-73
2021/09/17 01:14:20;;;;;;;3.30;0.60;;;21.90;91.20;;;;;;5042964;28;20214;-73
2021/09/17 01:16:47;;;;;;;1.93;1.57;;;21.80;91.30;;;;;;5042314;28;20210;-73
2021/09/17 01:19:14;;;;;;;2.30;0.90;;;21.80;91.30;;;;;;5039526;28;20672;-73
2021/09/17 01:21:41;;;;;;;0.80;0.60;;;21.80;91.30;;;;;;5042041;28;20272;-73
2021/09/17 01:24:08;;;;;;;3.20;2.33;;;21.80;91.40;;;;;;5039059;28;20676;-73
2021/09/17 01:26:35;;;;;;;2.60;2.20;;;21.80;91.40;;;;;;5042091;28;20594;-73
2021/09/17 01:29:02;;;;;;;2.47;1.00;;;21.80;91.40;;;;;;5034128;28;20219;-73
2021/09/17 01:31:29;;;;;;;1.40;1.30;;;21.80;91.50;;;;;;5042635;28;20211;-73
2021/09/17 01:34:06;;;;;;;2.33;2.23;;;21.80;91.60;;;;;;5035564;28;20211;-73
2021/09/17 01:36:33;;;;;;;4.03;3.67;;;21.70;91.70;;;;;;5033645;28;20225;-73
2021/09/17 01:39:01;;;;;;;1.07;1.07;;;21.80;91.80;;;;;;5042499;28;20284;-73
2021/09/17 01:41:28;;;;;;;6.50;3.30;;;21.70;91.80;;;;;;5043959;28;20623;-73
2021/09/17 01:43:55;;;;;;;1.30;1.20;;;21.70;91.90;;;;;;5034782;28;20208;-73
2021/09/17 01:46:22;;;;;;;1.23;1.23;;;21.80;91.90;;;;;;5045103;28;20250;-73
2021/09/17 01:48:49;;;;;;;2.33;1.63;;;21.70;91.90;;;;;;5025532;28;20215;-73
2021/09/17 01:51:16;;;;;;;1.17;1.07;;;21.80;92.00;;;;;;5045043;28;20217;-73
2021/09/17 01:53:43;;;;;;;2.87;1.43;;;21.70;92.00;;;;;;5042320;28;20281;-73
2021/09/17 01:56:11;;;;;;;4.33;1.57;;;21.80;92.00;;;;;;5044876;28;20226;-73
2021/09/17 01:58:38;;;;;;;4.30;2.67;;;21.80;92.00;;;;;;5042949;28;20619;-73
2021/09/17 02:01:05;;;;;;;2.00;1.63;;;21.80;92.00;;;;;;5042703;28;20211;-73
2021/09/17 02:03:32;;;;;;;4.30;1.43;;;21.80;92.30;;;;;;5035345;28;20242;-73
2021/09/17 02:05:59;;;;;;;2.57;2.37;;;21.80;92.10;;;;;;5043557;28;20233;-73
2021/09/17 02:08:27;;;;;;;1.17;1.10;;;21.80;92.10;;;;;;5045515;28;20222;-73
2021/09/17 02:10:54;;;;;;;0.77;0.77;;;21.80;92.00;;;;;;5042104;28;20658;-73
2021/09/17 02:13:20;;;;;;;6.23;2.77;;;21.90;92.00;;;;;;5046324;28;20272;-73
2021/09/17 02:15:49;;;;;;;2.40;2.20;;;21.90;92.00;;;;;;5046359;28;20269;-73
2021/09/17 02:18:17;;;;;;;2.07;1.97;;;21.90;92.00;;;;;;5036660;28;20295;-73
2021/09/17 02:20:46;;;;;;;1.03;0.87;;;21.90;91.90;;;;;;5034488;28;20603;-73
2021/09/17 02:23:14;;;;;;;3.80;2.30;;;21.90;91.90;;;;;;5042372;28;20237;-73
2021/09/17 02:25:41;;;;;;;0.90;0.90;;;21.90;91.90;;;;;;5034070;28;20649;-73
2021/09/17 02:28:08;;;;;;;1.33;1.23;;;22.00;91.90;;;;;;5045296;28;20210;-73
2021/09/17 02:30:35;;;;;;;0.80;0.80;;;21.90;91.90;;;;;;5032530;28;20215;-73
2021/09/17 02:33:02;;;;;;;2.90;2.13;;;21.90;91.80;;;;;;5042720;28;20207;-73
2021/09/17 02:35:29;;;;;;;1.47;1.37;;;22.00;91.90;;;;;;5045103;28;20300;-73
2021/09/17 02:37:56;;;;;;;5.43;1.60;;;21.90;91.80;;;;;;5043167;28;20236;-73
2021/09/17 02:40:23;;;;;;;2.20;1.77;;;21.90;91.80;;;;;;5035994;28;20206;-73
2021/09/17 02:42:50;;;;;;;1.43;0.90;;;21.90;91.80;;;;;;5042208;28;20651;-73
2021/09/17 02:45:18;;;;;;;1.53;1.23;;;21.90;91.90;;;;;;5044276;28;20242;-73
2021/09/17 02:47:45;;;;;;;5.83;0.83;;;21.90;91.90;;;;;;5025453;28;20215;-73
2021/09/17 02:50:13;;;;;;;2.43;1.73;;;21.90;91.90;;;;;;5042932;28;20211;-73
2021/09/17 02:52:40;;;;;;;1.67;0.67;;;21.80;91.80;;;;;;5042147;28;20222;-73
2021/09/17 02:55:09;;;;;;;1.70;1.60;;;21.80;91.80;;;;;;5042112;28;20211;-73
2021/09/17 02:57:38;;;;;;;5.77;2.03;;;21.80;91.80;;;;;;5043078;28;20214;-73
2021/09/17 03:00:07;;;;;;;1.10;1.00;;;21.80;91.90;;;;;;5040874;28;20235;-73
2021/09/17 03:02:34;;;;;;;11.57;1.83;;;21.80;91.80;;;;;;5035150;28;20214;-73
2021/09/17 03:05:02;;;;;;;1.37;1.23;;;21.80;91.80;;;;;;5033648;28;20225;-73
2021/09/17 03:07:29;;;;;;;1.77;1.70;;;21.80;91.80;;;;;;5042680;28;20210;-73
2021/09/17 03:09:56;;;;;;;1.53;1.13;;;21.80;91.80;;;;;;5047523;28;20207;-73
2021/09/17 03:12:23;;;;;;;2.60;1.07;;;21.80;91.80;;;;;;5044160;28;20241;-73
2021/09/17 03:14:50;;;;;;;2.17;1.80;;;21.70;91.80;;;;;;5044261;28;20214;-73
2021/09/17 03:17:17;;;;;;;0.90;0.90;;;21.70;91.90;;;;;;5033497;28;20233;-73
2021/09/17 03:19:44;;;;;;;1.10;0.90;;;21.70;91.90;;;;;;5033076;28;20789;-73
2021/09/17 03:22:11;;;;;;;11.70;2.17;;;21.70;92.00;;;;;;5040302;28;20575;-73
2021/09/17 03:24:38;;;;;;;12.50;2.77;;;21.70;92.00;;;;;;5044300;28;20210;-73
2021/09/17 03:27:05;;;;;;;1.90;1.27;;;21.80;92.00;;;;;;5032705;28;20277;-73
2021/09/17 03:29:33;;;;;;;2.63;2.00;;;21.80;91.90;;;;;;5042906;28;20229;-73
2021/09/17 03:32:00;;;;;;;0.93;0.93;;;21.80;91.90;;;;;;5043067;28;20218;-73
2021/09/17 03:34:27;;;;;;;0.10;0.10;;;21.80;91.90;;;;;;5041001;28;20523;-73
2021/09/17 03:36:54;;;;;;;1.07;0.97;;;21.90;91.90;;;;;;5033955;28;20276;-73
2021/09/17 03:39:22;;;;;;;7.07;1.73;;;21.80;91.90;;;;;;5033364;28;20246;-73
2021/09/17 03:41:49;;;;;;;2.33;2.10;;;21.80;91.80;;;;;;5041763;28;20222;-73
2021/09/17 03:44:16;;;;;;;2.37;2.17;;;21.90;91.90;;;;;;5043584;28;20577;-73
2021/09/17 03:46:43;;;;;;;5.20;2.10;;;21.80;91.80;;;;;;5031497;28;20312;-73
2021/09/17 03:49:10;;;;;;;3.33;2.03;;;21.90;92.10;;;;;;5043088;28;20233;-73
2021/09/17 03:51:37;;;;;;;2.33;1.30;;;21.90;91.80;;;;;;5032476;28;20280;-73
2021/09/17 03:54:05;;;;;;;0.67;0.67;;;21.90;91.80;;;;;;5039322;28;20717;-73
2021/09/17 03:56:32;;;;;;;3.83;2.47;;;21.90;91.80;;;;;;5043573;28;20218;-73
2021/09/17 03:58:59;;;;;;;1.37;1.20;;;21.90;91.80;;;;;;5023559;28;20227;-73
2021/09/17 04:01:26;;;;;;;1.50;1.40;;;21.90;91.80;;;;;;5024938;28;20716;-73
2021/09/17 04:03:54;;;;;;;2.97;2.17;;;21.90;91.80;;;;;;5042522;28;20615;-73
2021/09/17 04:06:21;;;;;;;0.83;0.80;;;21.80;91.80;;;;;;5042314;28;20207;-73
2021/09/17 04:08:48;;;;;;;3.07;1.87;;;21.80;91.80;;;;;;5043847;28;20615;-73
2021/09/17 04:11:15;;;;;;;8.73;1.43;;;21.80;91.80;;;;;;5032207;28;20277;-73
2021/09/17 04:13:42;;;;;;;2.07;1.93;;;21.80;91.80;;;;;;5036054;28;20210;-73
2021/09/17 04:16:09;;;;;;;1.10;0.93;;;21.80;91.80;;;;;;5040847;28;20234;-73
2021/09/17 04:18:36;;;;;;;1.20;1.13;;;21.70;91.80;;;;;;5034796;28;20253;-73
2021/09/17 04:21:03;;;;;;;0.67;0.67;;;21.70;91.80;;;;;;5040160;28;20528;-73
2021/09/17 04:23:30;;;;;;;1.40;1.03;;;21.70;91.80;;;;;;5040716;28;20211;-73
2021/09/17 04:25:57;;;;;;;1.87;0.90;;;21.70;91.80;;;;;;5031784;28;20214;-73
2021/09/17 04:28:24;;;;;;;2.43;1.67;;;21.60;91.80;;;;;;5043092;28;20206;-73
2021/09/17 04:30:51;;;;;;;1.43;1.03;;;21.60;91.80;;;;;;5039612;28;20229;-73
2021/09/17 04:33:18;;;;;;;2.17;1.73;;;21.60;91.80;;;;;;5042922;28;20268;-73
2021/09/17 04:35:45;;;;;;;1.30;0.50;;;21.50;91.80;;;;;;5043708;28;20215;-73
2021/09/17 04:38:14;;;;;;;1.07;1.07;;;21.40;91.80;;;;;;5041035;28;20361;-73
2021/09/17 04:40:43;;;;;;;0.73;0.70;;;21.40;91.90;;;;;;5043287;28;20344;-73
2021/09/17 04:43:10;;;;;;;0.63;0.57;;;21.30;92.00;;;;;;5023183;28;20211;-73
2021/09/17 04:45:37;;;;;;;2.40;1.47;;;21.30;92.00;;;;;;5041562;28;20246;-73
2021/09/17 04:48:13;;;;;;;1.80;0.97;;;21.30;92.00;;;;;;5025185;28;20659;-73
2021/09/17 04:50:41;;;;;;;1.63;1.13;;;21.30;92.00;;;;;;5040064;28;20246;-73
2021/09/17 04:53:09;;;;;;;3.97;2.07;;;21.30;92.00;;;;;;5039567;28;20223;-73
2021/09/17 04:55:37;;;;;;;5.47;1.87;;;21.30;92.00;;;;;;5040628;28;20219;-73
2021/09/17 04:58:06;;;;;;;0.47;0.47;;;21.30;92.00;;;;;;5043502;28;20218;-73
2021/09/17 05:00:37;;;;;;;1.07;0.97;;;21.30;92.00;;;;;;5039013;28;20537;-73
2021/09/17 05:03:05;;;;;;;0.30;0.30;;;21.20;92.00;;;;;;5045070;28;20215;-73
2021/09/17 05:05:32;;;;;;;0.83;0.83;;;21.20;92.00;;;;;;5018845;28;20228;-73
2021/09/17 05:08:00;;;;;;;1.63;1.30;;;21.20;92.10;;;;;;5046269;28;20221;-73
2021/09/17 05:10:27;;;;;;;0.73;0.73;;;21.20;92.10;;;;;;5046220;28;20649;-73
2021/09/17 05:12:55;;;;;;;0.53;0.40;;;21.20;92.10;;;;;;5045883;28;20215;-73
2021/09/17 05:15:22;;;;;;;1.23;1.13;;;21.20;92.00;;;;;;5051896;28;20221;-73
2021/09/17 05:17:49;;;;;;;3.10;1.13;;;21.30;92.00;;;;;;5043616;28;20284;-73
2021/09/17 05:20:17;;;;;;;0.60;0.60;;;21.30;92.00;;;;;;5036344;28;20242;-73
2021/09/17 05:22:44;;;;;;;1.80;1.20;;;21.30;91.90;;;;;;5031900;28;20292;-73
2021/09/17 05:25:11;;;;;;;0.23;0.23;;;21.40;91.90;;;;;;5037705;28;20467;-73
2021/09/17 05:27:39;;;;;;;1.27;1.23;;;21.50;91.80;;;;;;5043853;28;20234;-73
2021/09/17 05:30:07;;;;;;;0.47;0.47;;;21.50;91.80;;;;;;5043560;28;20273;-73
2021/09/17 05:32:34;;;;;;;2.80;1.33;;;21.60;91.70;;;;;;5011405;28;20218;-73
2021/09/17 05:35:03;;;;;;;4.57;1.50;;;21.60;91.70;;;;;;5036835;28;20672;-72
2021/09/17 05:37:31;;;;;;;0.40;0.40;;;21.60;91.60;;;;;;5046504;28;20219;-72
2021/09/17 05:39:58;;;;;;;0.80;0.80;;;21.60;91.60;;;;;;5043299;28;20322;-72
2021/09/17 05:42:25;;;;;;;4.17;1.90;;;21.60;91.60;;;;;;5046709;28;20642;-72
2021/09/17 05:44:52;;;;;;;1.40;1.30;;;21.70;91.60;;;;;;5044476;28;20222;-72
2021/09/17 05:47:19;;;;;;;1.80;1.00;;;21.70;91.70;;;;;;5045386;28;20716;-72
2021/09/17 05:49:46;;;;;;;4.37;2.23;;;21.70;91.60;;;;;;5042855;28;20273;-72
2021/09/17 05:52:14;;;;;;;24.43;2.20;;;21.80;91.60;;;;;;5030131;28;20595;-72
2021/09/17 05:54:41;;;;;;;6.67;1.73;;;21.80;91.60;;;;;;5044930;28;20279;-72
2021/09/17 05:57:08;;;;;;;2.03;1.27;;;21.80;91.60;;;;;;5044984;28;20295;-72
2021/09/17 05:59:35;;;;;;;5.13;1.53;;;21.70;91.60;;;;;;5032304;28;20615;-72
2021/09/17 06:02:04;;;;;;;3.00;2.37;;;21.70;91.70;;;;;;5034114;28;20701;-72
2021/09/17 06:04:31;;;;;;;2.53;1.63;;;21.70;91.80;;;;;;5034238;28;20215;-72
2021/09/17 06:06:58;;;;;;;0.50;0.50;;;21.60;91.90;;;;;;5023505;28;20725;-72
2021/09/17 06:09:25;;;;;;;1.27;1.17;;;21.60;92.10;;;;;;5024718;28;20227;-72
2021/09/17 06:11:53;;;;;;;9.70;3.40;;;21.60;92.20;;;;;;5033816;28;20662;-72
2021/09/17 06:14:19;;;;;;;2.00;1.90;;;21.60;92.30;;;;;;5026057;28;20215;-72
2021/09/17 06:16:47;;;;;;;10.57;1.97;;;21.60;92.30;;;;;;5034204;28;20226;-72
2021/09/17 06:19:14;;;;;;;5.60;2.53;;;21.70;92.40;;;;;;5044126;28;20272;-73
2021/09/17 06:21:41;;;;;;;1.73;1.37;;;21.70;92.50;;;;;;5032137;28;20219;-73
2021/09/17 06:24:08;;;;;;;2.03;1.80;;;21.70;92.40;;;;;;5034011;28;20604;-73
2021/09/17 06:26:35;;;;;;;5.30;2.40;;;21.80;92.40;;;;;;5044160;28;20276;-73
2021/09/17 06:29:05;;;;;;;4.13;2.80;;;21.90;92.30;;;;;;5044461;28;20276;-73
2021/09/17 06:31:33;;;;;;;8.60;2.43;;;22.00;92.30;;;;;;5030985;28;20268;-73
2021/09/17 06:34:01;;;;;;;4.13;1.70;;;22.00;92.20;;;;;;5042538;28;20227;-73
2021/09/17 06:36:27;;;;;;;6.13;1.50;;;22.00;92.20;;;;;;5034391;28;20213;-73
2021/09/17 06:38:55;;;;;;;6.20;2.30;;;22.10;92.20;;;;;;5042989;28;20283;-73
2021/09/17 06:41:23;;;;;;;2.87;1.90;;;22.10;92.20;;;;;;5044902;28;20297;-73
2021/09/17 06:43:50;;;;;;;4.87;2.13;;;22.10;92.10;;;;;;5029801;28;20523;-73
2021/09/17 06:46:17;;;;;;;10.90;3.67;;;22.10;92.40;;;;;;5034107;28;20242;-73
2021/09/17 06:48:45;;;;;;;6.27;2.17;;;22.20;92.10;;;;;;5043958;28;20207;-73
2021/09/17 06:51:13;;;;;;;3.70;2.50;;;22.20;92.10;;;;;;5025742;28;20215;-73
2021/09/17 06:53:40;;;;;;;3.17;2.10;;;22.20;92.30;;;;;;5041732;28;20218;-73
2021/09/17 06:56:08;;;;;;;3.97;2.63;;;22.20;92.00;;;;;;5042110;28;20215;-73
2021/09/17 06:58:36;;;;;;;1.67;1.53;;;22.20;92.00;;;;;;5043429;28;20265;-73
2021/09/17 07:01:03;;;;;;;4.43;2.40;;;22.20;92.10;;;;;;5035332;28;20280;-73
2021/09/17 07:03:31;;;;;;;4.07;2.17;;;22.20;92.10;;;;;;5041543;28;20211;-73
2021/09/17 07:05:58;;;;;;;3.30;1.67;;;22.10;92.10;;;;;;5034486;28;20519;-73
2021/09/17 07:08:25;;;;;;;4.43;2.13;;;22.10;92.10;;;;;;5034350;28;20215;-73
2021/09/17 07:10:52;;;;;;;1.60;1.50;;;22.20;92.10;;;;;;5042071;28;20233;-73
2021/09/17 07:13:20;;;;;;;6.27;2.70;;;22.20;92.10;;;;;;5041509;28;20249;-73
2021/09/17 07:15:47;;;;;;;6.97;2.67;;;22.20;92.10;;;;;;5027053;28;20271;-73
2021/09/17 07:18:14;;;;;;;12.47;2.57;;;22.20;92.20;;;;;;5042295;28;20228;-73
2021/09/17 07:20:41;;;;;;;2.07;1.83;;;22.30;92.20;;;;;;5024955;28;20272;-72
2021/09/17 07:23:10;;;;;;;3.47;1.20;;;22.40;92.10;;;;;;5030908;28;20207;-72
2021/09/17 07:25:38;;;;;;;37.83;1.83;;;22.50;92.00;;;;;;5043848;28;20272;-72
2021/09/17 07:28:08;;;;;;;7.47;2.83;;;22.60;91.90;;;;;;5040422;28;20211;-72
2021/09/17 07:30:35;;;;;;;7.47;3.23;;;22.90;92.00;;;;;;5043082;28;20214;-72
2021/09/17 07:33:02;;;;;;;3.23;2.47;;;23.10;91.50;;;;;;5041416;28;20559;-72
2021/09/17 07:35:30;;;;;;;2.33;1.07;;;23.20;91.30;;;;;;5031045;28;20210;-72
2021/09/17 07:37:58;;;;;;;5.27;4.20;;;23.30;91.10;;;;;;5043218;28;20627;-72
2021/09/17 07:40:29;;;;;;;3.77;1.93;;;23.40;90.90;;;;;;5042355;28;20239;-72
2021/09/17 07:42:56;;;;;;;4.23;2.00;;;23.40;90.70;;;;;;5040846;28;20215;-72
2021/09/17 07:45:24;;;;;;;3.70;3.37;;;23.40;90.60;;;;;;5024783;28;20342;-72
2021/09/17 07:47:54;;;;;;;1.90;1.80;;;23.30;90.50;;;;;;5042650;28;20215;-72
2021/09/17 07:50:22;;;;;;;1.33;1.13;;;23.30;90.60;;;;;;5042682;28;20241;-72
2021/09/17 07:52:49;;;;;;;2.47;2.33;;;23.30;90.50;;;;;;5037867;28;20310;-72
2021/09/17 07:55:17;;;;;;;7.53;5.23;;;23.30;90.40;;;;;;5040559;28;20639;-72
2021/09/17 07:57:44;;;;;;;2.73;2.50;;;23.30;90.30;;;;;;5042341;28;20565;-72
2021/09/17 08:00:13;;;;;;;2.73;1.80;;;23.30;90.30;;;;;;5025453;28;20245;-72
2021/09/17 08:02:42;;;;;;;3.83;1.57;;;23.30;90.20;;;;;;5040409;28;20219;-72
2021/09/17 08:05:13;;;;;;;4.73;1.53;;;23.40;90.00;;;;;;5021497;28;20210;-72
2021/09/17 08:07:40;;;;;;;3.07;2.23;;;23.50;89.20;;;;;;5041824;28;20289;-72
2021/09/17 08:10:08;;;;;;;3.77;3.20;;;23.50;89.00;;;;;;5043022;28;20229;-72
2021/09/17 08:12:35;;;;;;;5.43;3.17;;;23.60;89.00;;;;;;5043925;28;20728;-72
2021/09/17 08:15:04;;;;;;;3.97;1.50;;;23.60;88.50;;;;;;5041711;28;20519;-72
2021/09/17 08:17:32;;;;;;;8.13;3.80;;;23.80;88.00;;;;;;5041941;28;20230;-72
2021/09/17 08:20:04;;;;;;;2.83;2.43;;;23.80;87.70;;;;;;5040719;28;20235;-72
2021/09/17 08:22:32;;;;;;;4.80;2.50;;;23.90;86.90;;;;;;5036272;28;20213;-72
2021/09/17 08:25:00;;;;;;;2.10;0.70;;;23.90;86.40;;;;;;5042260;28;20571;-72
2021/09/17 08:27:27;;;;;;;3.60;2.77;;;23.80;86.60;;;;;;5024170;28;20218;-72
2021/09/17 08:29:54;;;;;;;0.97;0.97;;;23.80;86.60;;;;;;5044016;28;20638;-72
2021/09/17 08:32:21;;;;;;;2.30;2.20;;;24.00;86.10;;;;;;5040066;28;20647;-72
2021/09/17 08:34:48;;;;;;;3.57;2.20;;;24.10;85.90;;;;;;5043156;28;20275;-72
2021/09/17 08:37:15;;;;;;;4.10;2.80;;;24.30;85.70;;;;;;5042521;28;20561;-72
2021/09/17 08:39:42;;;;;;;1.27;1.17;;;24.70;84.70;;;;;;5030414;28;20229;-73
2021/09/17 08:42:09;;;;;;;0.93;0.93;;;25.00;83.60;;;;;;5044969;28;20639;-72
2021/09/17 08:44:37;;;;;;;3.70;2.40;;;25.20;83.00;;;;;;5048058;28;20279;-72
2021/09/17 08:47:06;;;;;;;1.10;1.10;;;25.50;82.30;;;;;;5025908;28;20278;-72
2021/09/17 08:49:34;;;;;;;1.60;1.50;;;25.60;80.90;;;;;;5025598;28;20211;-72
2021/09/17 08:52:02;;;;;;;3.10;1.57;;;25.50;80.30;;;;;;5014483;28;20212;-72
2021/09/17 08:54:29;;;;;;;2.63;1.40;;;25.50;80.70;;;;;;5024928;28;20584;-72
2021/09/17 08:56:56;;;;;;;1.50;1.40;;;25.40;80.90;;;;;;5025771;28;20256;-72
2021/09/17 08:59:23;;;;;;;1.13;1.13;;;25.40;79.70;;;;;;5018184;28;20230;-72
2021/09/17 09:01:50;;;;;;;1.33;1.20;;;25.30;79.90;;;;;;5006699;28;20243;-72
2021/09/17 09:04:29;;;;;;;3.20;3.03;;;25.30;79.50;;;;;;5024395;28;20303;-73
2021/09/17 09:07:04;;;;;;;2.87;1.57;;;25.30;78.40;;;;;;5024608;28;20207;-74
2021/09/17 09:09:32;;;;;;;6.93;1.40;;;25.40;77.80;;;;;;5024838;28;20215;-75
2021/09/17 09:11:59;;;;;;;2.77;2.50;;;25.40;78.00;;;;;;5010615;28;20249;-74
2021/09/17 09:14:26;;;;;;;1.23;1.13;;;25.40;78.00;;;;;;5010332;28;20216;-74
2021/09/17 09:16:53;;;;;;;0.23;0.23;;;25.50;77.30;;;;;;5026740;28;20218;-74
2021/09/17 09:19:37;;;;;;;2.53;1.43;;;25.60;76.40;;;;;;5024403;28;20515;-74
2021/09/17 09:22:08;;;;;;;16.83;1.80;;;25.80;76.60;;;;;;5019851;28;20215;-73
2021/09/17 09:24:40;;;;;;;2.17;2.00;;;26.20;75.50;;;;;;5026013;28;20318;-74
2021/09/17 09:27:14;;;;;;;1.07;1.03;;;26.20;74.10;;;;;;5008953;28;20269;-74
2021/09/17 09:29:44;;;;;;;1.07;1.07;;;26.00;74.20;;;;;;5024609;28;20214;-73
2021/09/17 09:32:24;;;;;;;0.30;0.30;;;25.90;75.20;;;;;;5008106;28;20285;-74
2021/09/17 09:34:56;;;;;;;1.20;1.10;;;26.20;75.30;;;;;;5024003;28;20277;-74
2021/09/17 09:37:27;;;;;;;2.43;2.23;;;26.50;73.80;;;;;;5009662;28;20617;-74
2021/09/17 09:40:05;;;;;;;2.77;0.97;;;26.80;73.40;;;;;;5005821;28;20566;-73
2021/09/17 09:42:41;;;;;;;8.90;1.67;;;27.20;72.50;;;;;;5024669;28;20627;-73
2021/09/17 09:45:19;;;;;;;2.20;2.00;;;27.70;71.60;;;;;;5026585;28;20242;-73
2021/09/17 09:47:52;;;;;;;0.70;0.70;;;28.10;69.70;;;;;;5025244;28;20219;-74
2021/09/17 09:50:24;;;;;;;1.00;1.00;;;28.20;68.80;;;;;;5013778;28;20698;-74
2021/09/17 09:52:53;;;;;;;1.13;1.13;;;28.30;69.00;;;;;;5021698;28;20226;-74
2021/09/17 09:55:20;;;;;;;1.73;1.63;;;28.40;67.80;;;;;;5005977;28;20219;-74
2021/09/17 09:57:48;;;;;;;1.00;0.67;;;28.50;67.90;;;;;;5009004;28;20219;-74
2021/09/17 10:00:17;;;;;;;0.40;0.40;;;28.60;66.00;;;;;;5023617;28;20235;-74
2021/09/17 10:02:45;;;;;;;0.97;0.97;;;28.60;66.00;;;;;;5024267;28;20597;-74
2021/09/17 10:05:15;;;;;;;2.13;2.00;;;28.70;64.90;;;;;;5008698;28;20211;-74
2021/09/17 10:07:44;;;;;;;5.90;1.20;;;28.60;65.00;;;;;;5012569;28;20364;-74
2021/09/17 10:10:13;;;;;;;0.73;0.73;;;28.60;65.00;;;;;;5006676;28;20219;-74
2021/09/17 10:12:40;;;;;;;0.47;0.47;;;28.70;65.00;;;;;;5023846;28;20226;-74
2021/09/17 10:15:11;;;;;;;1.23;1.13;;;28.90;65.10;;;;;;5029560;28;20639;-74
2021/09/17 10:17:51;;;;;;;1.50;1.40;;;29.10;64.70;;;;;;5023708;28;20661;-75
2021/09/17 10:20:19;;;;;;;0.40;0.40;;;29.30;64.10;;;;;;5022394;28;20239;-74
2021/09/17 10:22:46;;;;;;;1.83;1.50;;;29.50;63.50;;;;;;5022541;28;20207;-74
2021/09/17 10:25:24;;;;;;;0.87;0.87;;;29.60;63.30;;;;;;5023715;28;20220;-75
2021/09/17 10:28:11;;;;;;;0.07;0.07;;;29.70;62.60;;;;;;5022861;28;20222;-74
2021/09/17 10:30:40;;;;;;;0.30;0.30;;;29.80;61.60;;;;;;5022001;28;20223;-75
2021/09/17 10:33:24;;;;;;;0.70;0.70;;;29.70;61.90;;;;;;5025043;28;20226;-74
2021/09/17 10:35:52;;;;;;;2.00;1.13;;;29.70;62.40;;;;;;5015605;28;20227;-75
2021/09/17 10:38:21;;;;;;;1.10;0.97;;;29.60;62.60;;;;;;5005973;28;20212;-75
2021/09/17 10:40:51;;;;;;;0.47;0.47;;;29.80;62.30;;;;;;5023076;28;20718;-75
2021/09/17 10:43:25;;;;;;;1.07;1.07;;;29.90;61.70;;;;;;5008305;28;20211;-74
2021/09/17 10:45:58;;;;;;;0.73;0.73;;;30.00;60.90;;;;;;5023000;28;20239;-75
2021/09/17 10:48:53;;;;;;;0.53;0.53;;;30.10;61.50;;;;;;5022627;28;20227;-74
2021/09/17 10:51:29;;;;;;;0.73;0.73;;;30.30;61.30;;;;;;5015358;28;20211;-75
2021/09/17 10:54:04;;;;;;;0.77;0.63;;;30.50;60.80;;;;;;5021570;28;20338;-74
2021/09/17 10:56:49;;;;;;;0.63;0.63;;;30.50;60.70;;;;;;5007765;28;20221;-74
2021/09/17 10:59:24;;;;;;;1.93;1.33;;;30.60;60.30;;;;;;5024193;28;20230;-75
2021/09/17 11:02:09;;;;;;;2.53;2.33;;;30.40;59.40;;;;;;5022934;28;20241;-74
2021/09/17 11:04:38;;;;;;;0.47;0.47;;;30.00;58.60;;;;;;5022609;28;20207;-74
2021/09/17 11:07:17;;;;;;;0.70;0.70;;;29.60;60.00;;;;;;5005756;28;20221;-74
2021/09/17 11:09:50;;;;;;;3.37;0.93;;;29.60;60.20;;;;;;5022759;28;20215;-75
2021/09/17 11:12:20;;;;;;;0.37;0.33;;;29.70;59.70;;;;;;5022952;28;20297;-75
2021/09/17 11:15:15;;;;;;;1.17;1.07;;;29.70;59.30;;;;;;5026091;28;20538;-76
2021/09/17 11:17:56;;;;;;;0.30;0.30;;;29.80;59.40;;;;;;5004691;28;20222;-76
2021/09/17 11:20:25;;;;;;;0.73;0.73;;;29.70;59.90;;;;;;5021233;28;20214;-75
2021/09/17 11:22:57;;;;;;;1.77;1.67;;;29.50;60.30;;;;;;5011246;28;20219;-75
2021/09/17 11:25:52;;;;;;;0.13;0.13;;;29.20;60.30;;;;;;5006160;28;20687;-74
2021/09/17 11:28:28;;;;;;;0.50;0.50;;;28.90;60.30;;;;;;5004625;28;20671;-76
2021/09/17 11:31:10;;;;;;;3.00;1.33;;;28.50;61.40;;;;;;5004690;28;20207;-75
2021/09/17 11:33:37;;;;;;;0.50;0.50;;;28.20;62.00;;;;;;5021490;28;20253;-75
2021/09/17 11:36:04;;;;;;;1.73;0.50;;;28.00;62.40;;;;;;5025688;28;20215;-76
2021/09/17 11:38:31;;;;;;;0.80;0.80;;;27.90;63.00;;;;;;5014313;28;20269;-74
2021/09/17 11:40:58;;;;;;;1.10;0.27;;;27.80;63.40;;;;;;5004320;28;20660;-74
2021/09/17 11:43:26;;;;;;;2.67;1.87;;;27.80;63.70;;;;;;5024442;28;20288;-74
2021/09/17 11:45:54;;;;;;;0.30;0.30;;;28.00;63.60;;;;;;5033954;28;20308;-75
2021/09/17 11:48:24;;;;;;;0.20;0.20;;;28.30;63.10;;;;;;5033531;28;20241;-75
2021/09/17 11:50:53;;;;;;;0.20;0.20;;;28.70;62.30;;;;;;5041524;28;20234;-75
2021/09/17 11:53:21;;;;;;;1.13;1.00;;;28.90;61.70;;;;;;5040526;28;20215;-74
2021/09/17 11:55:48;;;;;;;0.50;0.50;;;29.00;60.80;;;;;;5043036;28;20653;-74
2021/09/17 11:58:15;;;;;;;0.53;0.40;;;29.20;60.00;;;;;;5042159;28;20273;-74
2021/09/17 12:00:42;;;;;;;0.87;0.77;;;29.50;59.90;;;;;;5044072;28;20307;-74
2021/09/17 12:03:11;;;;;;;0.83;0.83;;;29.80;59.60;;;;;;5026939;28;20214;-74
2021/09/17 12:05:44;;;;;;;0.40;0.40;;;30.10;58.40;;;;;;5040610;28;20214;-74
2021/09/17 12:08:11;;;;;;;1.13;0.80;;;30.10;56.80;;;;;;5041848;28;20211;-74
2021/09/17 12:10:44;;;;;;;0.83;0.83;;;30.00;57.50;;;;;;5042866;28;20297;-74
2021/09/17 12:13:13;;;;;;;1.70;0.60;;;30.00;58.10;;;;;;5041304;28;20601;-74
2021/09/17 12:15:45;;;;;;;1.40;0.93;;;30.00;58.10;;;;;;5041911;28;20649;-74
2021/09/17 12:18:19;;;;;;;3.40;1.33;;;30.00;58.00;;;;;;5040539;28;20284;-74
2021/09/17 12:20:57;;;;;;;1.60;1.30;;;29.90;58.10;;;;;;5024534;28;20693;-74
2021/09/17 12:23:45;;;;;;;3.67;1.63;;;29.60;57.90;;;;;;5039996;28;20369;-74
2021/09/17 12:26:18;;;;;;;1.27;1.27;;;29.40;58.40;;;;;;5043247;28;20218;-74
2021/09/17 12:28:51;;;;;;;0.73;0.47;;;29.20;58.50;;;;;;5041499;28;20229;-74
2021/09/17 12:31:44;;;;;;;2.10;1.90;;;28.90;59.70;;;;;;5040654;28;20222;-74
2021/09/17 12:34:15;;;;;;;8.20;1.43;;;28.60;59.40;;;;;;5020215;28;20230;-74
2021/09/17 12:36:51;;;;;;;1.10;0.53;;;28.50;59.60;;;;;;5041534;28;20211;-74
2021/09/17 12:39:24;;;;;;;0.47;0.47;;;28.40;60.00;;;;;;5034417;28;20312;-74
2021/09/17 12:42:08;;;;;;;0.80;0.80;;;28.50;59.80;;;;;;5023146;28;20227;-74
2021/09/17 12:44:39;;;;;;;2.97;1.13;;;28.80;59.70;;;;;;5040472;28;20211;-74
2021/09/17 12:47:07;;;;;;;0.30;0.30;;;29.10;59.30;;;;;;5041457;28;20221;-74
2021/09/17 12:49:34;;;;;;;0.53;0.23;;;29.20;58.00;;;;;;5042680;28;20634;-74
2021/09/17 12:52:01;;;;;;;0.20;0.20;;;29.40;58.20;;;;;;5043485;28;20215;-74
2021/09/17 12:54:40;;;;;;;0.17;0.17;;;29.60;58.20;;;;;;5020600;28;20651;-74